Airfield :
LOGIN :

Register | Disclaimer

   EN    FR    IT 

 










Legend :    VFR   Marginal VFR   IFR   Intensive IFR   Very Intensive IFR
Visi :
Ceiling :
>= 8 km
>= 3000ft
5 to 8 km
1000 to 3000 ft
1500m to 5 km
500 to 1000 ft
800 to 1500m
200 to 500 ft
< 800m
< 200 ft
Symbols :   Thunderstorms  Fog  Heavy snow  Heavy precipitations  Wind > 20 kt
SIGMETs :     Misc.  Thunderstorms  Icing  Turbulence  Mountain Waves  Volcanic Ashes






- Airport Elevation : 25 ft
- IATA code : QCY


EGXC - RAF Coningsby

CURRENT METAR :
  • 252120Z AUTO 25012KT 9999 FEW038/// OVC160/// 12/07 Q1009

EXPIRED METARs :
  • 252050Z 24010KT 9999 FEW035 BKN160 BKN200 12/07 Q1009 RMK BLU
  • 252020Z AUTO 24011KT 9999 FEW038/// OVC190/// 12/07 Q1010
  • 251950Z 25011KT 9999 BKN040 13/07 Q1011 RMK BLU
  • 251920Z AUTO 25008KT 9999 BKN038/// 13/07 Q1011
  • 251850Z 25009KT 9999 SCT040 BKN170 13/08 Q1011 RMK BLU

TAF TAF EGXC
Valid from the 25 at 21:00 until the 26 at 15:00 UTC


251934Z 2521/2615 25010KT 9999 BKN040
BECMG 2522/2524 BKN018
PROB30
TEMPO 2600/2603 26015G25KT 4000 RA BKN012
BECMG 2603/2605 SCT025
PROB30
TEMPO 2609/2613 33015G25KT -SHRA SCT022



MET'MAP, your aeronautical weather chart ! - Copyright ORBIFLY December 2007 - Disclaimer

ORBIFLY MET'MAP TEAM :

Programming & Development : Alexandra Zaïnal
Original concept : Baudouin d'Aumeries
Technical & hardware support : Manuel Goepfert
Assistance : Marc-Olivier Méhu




SOURCES & CREDITS :

   NOAA